Time;durP1;ratioP1;P1;durP2;ratioP2;P2;SDS_P1;SDS_P2;PMS_P1;PMS_P2;Temp;Humidity;BMP_temperature;BMP_pressure;BME280_temperature;BME280_humidity;BME280_pressure;Samples;Min_cycle;Max_cycle;Signal;HPM_P1;HPM_P2
2022/01/02 00:00:22;;;;;;;;;28.25;28.25;;;;;11.39;72.13;101343.41;5020722;28;45327;-86
2022/01/02 00:02:53;;;;;;;;;27.00;25.25;;;;;11.40;71.71;101326.72;5020174;28;46643;-84
2022/01/02 00:05:23;;;;;;;;;35.25;29.50;;;;;11.25;71.62;101289.59;5020435;28;45369;-85
2022/01/02 00:07:54;;;;;;;;;31.50;24.00;;;;;11.41;71.51;101327.59;5020232;28;45397;-87
2022/01/02 00:10:21;;;;;;;;;25.75;23.25;;;;;11.31;72.02;101313.41;5020394;28;45223;-84
2022/01/02 00:12:52;;;;;;;;;26.50;22.00;;;;;11.20;72.06;101287.78;5019837;28;45425;-82
2022/01/02 00:15:22;;;;;;;;;22.50;20.75;;;;;11.06;72.47;101262.06;5019902;28;45290;-82
2022/01/02 00:17:50;;;;;;;;;24.50;22.00;;;;;11.26;71.29;101295.75;5019546;28;45423;-86
2022/01/02 00:20:19;;;;;;;;;32.00;28.75;;;;;11.21;71.89;101287.78;5019992;28;45431;-81
2022/01/02 00:22:48;;;;;;;;;27.50;25.25;;;;;11.29;71.24;101303.72;5020052;28;45756;-84
2022/01/02 00:25:25;;;;;;;;;29.50;25.50;;;;;11.27;71.31;101301.06;5020254;28;45383;-81
2022/01/02 00:27:52;;;;;;;;;28.00;24.75;;;;;11.36;72.04;101329.31;5020424;28;45968;-82
2022/01/02 00:30:17;;;;;;;;;25.25;21.25;;;;;11.03;71.70;101277.88;5020912;28;45332;-82
2022/01/02 00:32:43;;;;;;;;;26.00;25.50;;;;;11.36;72.09;101340.75;5020220;28;46565;-83
2022/01/02 00:35:09;;;;;;;;;24.75;24.75;;;;;11.20;71.28;101309.75;5022729;28;45389;-81
2022/01/02 00:37:34;;;;;;;;;31.75;26.75;;;;;11.34;71.74;101334.53;5036127;28;45209;-81
2022/01/02 00:40:00;;;;;;;;;27.00;26.50;;;;;11.09;72.02;101284.97;5035820;28;45270;-78
2022/01/02 00:42:38;;;;;;;;;22.00;22.00;;;;;11.32;72.02;101322.22;5035211;28;46231;-78
2022/01/02 00:45:03;;;;;;;;;32.00;28.00;;;;;11.38;71.35;101320.56;5017699;28;45704;-79
2022/01/02 00:47:35;;;;;;;;;29.00;26.75;;;;;11.39;71.69;101314.41;5033627;28;45229;-80
2022/01/02 00:50:19;;;;;;;;;34.25;28.75;;;;;11.07;71.86;101260.31;5024454;28;45231;-81
2022/01/02 00:52:50;;;;;;;;;19.75;18.75;;;;;11.13;71.42;101290.31;5021494;28;46628;-80
2022/01/02 00:55:22;;;;;;;;;32.00;30.00;;;;;11.19;71.53;101300.06;5020845;28;45342;-79
2022/01/02 00:58:16;;;;;;;;;29.50;27.00;;;;;11.16;71.25;101299.13;5020604;28;45383;-80
2022/01/02 01:00:50;;;;;;;;;22.25;22.25;;;;;11.19;71.54;101307.97;5014147;28;45585;-82
2022/01/02 01:03:23;;;;;;;;;21.75;19.75;;;;;11.24;71.95;101305.38;5002900;28;46231;-83
2022/01/02 01:05:52;;;;;;;;;32.75;29.00;;;;;10.89;71.67;101231.06;5020152;28;45242;-80
2022/01/02 01:08:21;;;;;;;;;30.00;27.25;;;;;11.08;71.45;101241.91;5019912;28;45493;-80
2022/01/02 01:10:47;;;;;;;;;25.25;25.25;;;;;11.11;71.75;101239.31;5020345;28;45369;-80
2022/01/02 01:13:13;;;;;;;;;24.50;23.75;;;;;11.23;71.79;101264.06;5018660;28;45512;-79
2022/01/02 01:15:38;;;;;;;;;23.75;23.75;;;;;11.26;71.71;101269.38;5018984;28;45281;-80
2022/01/02 01:18:05;;;;;;;;;28.25;28.25;;;;;11.34;70.83;101262.44;5019271;28;45259;-79
2022/01/02 01:20:38;;;;;;;;;31.50;28.75;;;;;11.32;71.67;101249.25;5019293;28;45282;-79
2022/01/02 01:23:04;;;;;;;;;30.50;29.50;;;;;11.03;71.66;101185.59;5018779;28;46555;-85
2022/01/02 01:25:29;;;;;;;;;13.50;13.00;;;;;10.93;70.92;101173.16;5018849;28;45391;-78
2022/01/02 01:27:55;;;;;;;;;25.25;25.25;;;;;11.06;70.96;101187.38;5018873;28;45217;-80
2022/01/02 01:30:24;;;;;;;;;25.75;24.50;;;;;11.36;71.76;101240.53;5018795;28;45257;-79
2022/01/02 01:32:52;;;;;;;;;27.75;25.50;;;;;11.25;71.95;101226.28;5018454;28;45557;-81
2022/01/02 01:35:18;;;;;;;;;28.25;25.00;;;;;11.00;71.55;101204.00;5018756;28;45243;-79
2022/01/02 01:37:44;;;;;;;;;23.25;22.00;;;;;10.95;71.60;101212.72;5001450;28;45274;-81
2022/01/02 01:40:11;;;;;;;;;29.00;27.00;;;;;11.30;71.03;101253.63;5019585;28;45274;-82
2022/01/02 01:42:40;;;;;;;;;25.75;22.25;;;;;11.06;71.27;101205.81;5018647;28;46224;-80
2022/01/02 01:47:53;;;;;;;;;28.00;24.25;;;;;11.30;71.83;101250.97;5018987;28;45407;-83
2022/01/02 01:50:21;;;;;;;;;27.25;26.00;;;;;11.24;71.87;101244.72;5019470;28;45166;-84
2022/01/02 01:52:47;;;;;;;;;26.00;24.00;;;;;11.27;71.32;101256.22;5019029;28;46143;-82
2022/01/02 01:55:12;;;;;;;;;20.75;20.75;;;;;10.98;72.23;101199.56;5018895;28;45266;-84
2022/01/02 01:57:41;;;;;;;;;24.00;24.00;;;;;11.26;71.28;101229.81;5018862;28;45288;-82
2022/01/02 02:00:16;;;;;;;;;25.00;23.75;;;;;11.20;71.97;101222.72;5019114;28;45400;-84
2022/01/02 02:02:42;;;;;;;;;26.00;22.50;;;;;11.07;72.24;101191.78;5018977;28;46327;-83
2022/01/02 02:05:08;;;;;;;;;21.50;21.25;;;;;11.01;72.34;101178.53;5019316;28;45201;-85
2022/01/02 02:07:41;;;;;;;;;24.75;24.00;;;;;10.97;72.34;101181.97;5019177;28;45253;-85
2022/01/02 02:10:15;;;;;;;;;25.00;24.25;;;;;11.08;71.80;101205.00;5018641;28;45617;-83
2022/01/02 02:12:42;;;;;;;;;26.50;24.75;;;;;11.00;72.27;101176.78;5018594;28;46328;-85
2022/01/02 02:15:09;;;;;;;;;19.50;18.75;;;;;10.69;71.75;101121.00;5018387;28;45154;-85
2022/01/02 02:17:36;;;;;;;;;20.25;20.25;;;;;11.20;71.91;101216.56;5018165;28;45245;-80
2022/01/02 02:20:20;;;;;;;;;22.50;22.50;;;;;11.01;71.90;101194.34;5018478;28;45330;-80
2022/01/02 02:22:48;;;;;;;;;19.00;19.00;;;;;11.14;72.03;101210.34;5017704;28;45423;-84
2022/01/02 02:25:17;;;;;;;;;20.25;20.25;;;;;10.77;71.91;101124.63;5018353;28;45356;-84
2022/01/02 02:27:54;;;;;;;;;23.75;20.50;;;;;11.13;72.40;101192.75;5018189;28;45249;-83
2022/01/02 02:30:20;;;;;;;;;22.75;20.00;;;;;11.01;72.85;101173.25;5018110;28;45298;-80
2022/01/02 02:32:46;;;;;;;;;26.25;22.75;;;;;11.12;71.55;101184.81;5017346;28;45439;-81
2022/01/02 02:35:12;;;;;;;;;21.75;21.25;;;;;10.77;72.56;101129.03;5017925;28;45320;-80
2022/01/02 02:37:43;;;;;;;;;19.50;19.50;;;;;11.06;71.95;101167.16;5018520;28;45406;-80
2022/01/02 02:40:14;;;;;;;;;13.75;12.50;;;;;10.75;71.70;101113.19;5018093;28;45262;-79
2022/01/02 02:42:54;;;;;;;;;23.75;21.75;;;;;11.11;72.29;101175.16;5017305;28;45547;-79
2022/01/02 02:51:34;;;;;;;;;23.00;18.75;;;;;10.89;71.79;101120.38;5017352;28;45265;-80
2022/01/02 02:54:00;;;;;;;;;19.00;19.00;;;;;10.93;72.34;101122.19;5017693;28;45497;-79
2022/01/02 02:56:29;;;;;;;;;21.50;19.00;;;;;11.04;71.94;101149.56;5017469;28;45342;-80
2022/01/02 02:58:57;;;;;;;;;19.00;16.25;;;;;10.85;72.13;101109.81;5017754;28;45214;-80
2022/01/02 03:01:28;;;;;;;;;22.00;19.50;;;;;10.67;72.13;101075.31;5017659;28;45395;-79
2022/01/02 03:03:54;;;;;;;;;19.75;18.25;;;;;11.03;71.87;101126.72;5017363;28;46083;-78
2022/01/02 03:06:21;;;;;;;;;21.00;19.00;;;;;11.02;72.04;101128.47;5017523;28;45269;-80
2022/01/02 03:08:47;;;;;;;;;17.50;16.50;;;;;11.09;71.24;101129.44;4999331;28;45423;-79
2022/01/02 03:11:18;;;;;;;;;20.25;20.25;;;;;11.06;71.26;101130.25;5018791;28;45407;-80
2022/01/02 03:13:45;;;;;;;;;22.75;20.75;;;;;11.12;72.29;101140.00;5020937;28;45262;-79
2022/01/02 03:16:11;;;;;;;;;13.00;10.75;;;;;11.12;71.36;101140.88;5021122;28;45523;-79
2022/01/02 03:18:38;;;;;;;;;21.75;20.25;;;;;10.99;71.55;101112.63;5021068;28;45238;-79
2022/01/02 03:21:04;;;;;;;;;23.50;21.25;;;;;11.01;71.49;101096.81;5020894;28;45307;-79
2022/01/02 03:23:30;;;;;;;;;16.00;15.00;;;;;11.05;70.70;101093.34;5020352;28;45602;-79
2022/01/02 03:25:55;;;;;;;;;21.50;19.75;;;;;11.04;71.27;101092.44;5021014;28;45393;-80
2022/01/02 03:28:21;;;;;;;;;21.50;20.50;;;;;11.13;71.23;101121.56;4999293;28;45379;-79
2022/01/02 03:30:47;;;;;;;;;21.00;19.25;;;;;11.17;71.01;101129.50;5001213;28;45305;-79
2022/01/02 03:33:12;;;;;;;;;22.25;21.00;;;;;10.69;71.31;101078.84;5000667;28;46333;-78
2022/01/02 03:35:38;;;;;;;;;19.25;17.25;;;;;10.90;71.50;101096.69;5000676;28;45302;-80
2022/01/02 03:38:04;;;;;;;;;24.00;19.00;;;;;11.20;71.48;101150.63;5000647;28;45226;-79
2022/01/02 03:40:30;;;;;;;;;14.00;14.00;;;;;11.19;70.50;101140.97;5000898;28;45276;-79
2022/01/02 03:42:56;;;;;;;;;20.00;19.00;;;;;10.89;70.73;101087.03;5016006;28;45481;-82
2022/01/02 03:45:21;;;;;;;;;18.75;16.75;;;;;10.97;71.39;101103.78;5020234;28;45214;-79
2022/01/02 03:47:47;;;;;;;;;19.25;16.00;;;;;11.26;70.87;101134.88;5020616;28;45248;-79
2022/01/02 03:50:14;;;;;;;;;18.50;17.00;;;;;11.17;70.50;101111.94;5020578;28;45396;-80
2022/01/02 03:52:39;;;;;;;;;23.50;18.50;;;;;11.32;71.13;101135.81;5020376;28;45436;-79
2022/01/02 03:55:06;;;;;;;;;15.50;15.50;;;;;11.33;70.47;101123.53;5020126;28;45510;-80
2022/01/02 03:57:32;;;;;;;;;16.75;16.50;;;;;11.36;70.56;101111.28;5020376;28;45426;-79
2022/01/02 03:59:57;;;;;;;;;18.00;15.25;;;;;11.28;70.43;101104.16;5020280;28;45158;-77
2022/01/02 04:02:22;;;;;;;;;19.25;17.25;;;;;11.38;69.99;101111.28;5020034;28;45482;-80
2022/01/02 04:04:48;;;;;;;;;23.75;17.25;;;;;11.13;69.88;101062.66;5020335;28;45226;-79
2022/01/02 04:07:13;;;;;;;;;17.00;13.75;;;;;11.29;69.91;101084.81;5020330;28;45229;-82
2022/01/02 04:09:39;;;;;;;;;20.50;18.50;;;;;11.52;70.17;101111.41;5019895;28;45206;-79
2022/01/02 04:12:04;;;;;;;;;24.00;20.00;;;;;11.32;70.49;101074.28;5019928;28;46575;-79
2022/01/02 04:14:30;;;;;;;;;15.75;14.00;;;;;11.34;70.15;101083.09;5020158;28;45218;-79
2022/01/02 04:16:55;;;;;;;;;20.75;19.50;;;;;11.34;69.92;101083.09;5019763;28;46139;-80
2022/01/02 04:19:20;;;;;;;;;14.75;14.75;;;;;11.24;69.68;101063.66;5020322;28;45226;-79
2022/01/02 04:21:46;;;;;;;;;12.25;9.75;;;;;11.50;69.53;101119.31;5019347;28;45244;-80
2022/01/02 04:24:11;;;;;;;;;16.25;15.75;;;;;11.35;69.87;101063.75;5018834;28;45237;-80
2022/01/02 04:26:37;;;;;;;;;19.00;17.00;;;;;11.25;69.05;101036.41;5025220;28;45201;-83
2022/01/02 04:29:03;;;;;;;;;15.25;14.75;;;;;11.49;70.11;101085.00;5028590;28;45307;-84
2022/01/02 04:31:29;;;;;;;;;14.00;13.25;;;;;11.21;70.65;101039.00;5029934;28;45499;-83
2022/01/02 04:33:54;;;;;;;;;19.25;17.75;;;;;11.46;69.88;101098.16;5032871;28;45292;-80
2022/01/02 04:36:20;;;;;;;;;17.75;15.75;;;;;11.05;70.13;101030.06;5035391;28;45799;-81
2022/01/02 04:38:45;;;;;;;;;15.25;14.25;;;;;11.20;70.19;101056.59;5032388;28;45253;-82
2022/01/02 04:41:12;;;;;;;;;18.00;15.00;;;;;11.21;69.52;101039.91;5032513;28;45533;-83
2022/01/02 04:43:37;;;;;;;;;20.00;18.75;;;;;11.42;70.51;101084.03;5023975;28;45213;-85
2022/01/02 04:46:03;;;;;;;;;13.50;13.50;;;;;11.19;69.74;101024.94;5001635;28;45201;-83
2022/01/02 04:48:28;;;;;;;;;16.50;14.00;;;;;11.37;70.06;101051.47;5020212;28;45293;-83
2022/01/02 04:50:54;;;;;;;;;18.50;13.75;;;;;11.48;69.05;101064.75;5019978;28;45484;-80
2022/01/02 04:53:21;;;;;;;;;15.00;15.00;;;;;11.09;69.43;100992.34;5019777;28;45331;-80
2022/01/02 04:55:46;;;;;;;;;16.50;13.00;;;;;10.92;70.14;100957.91;5019866;28;45451;-80
2022/01/02 04:58:12;;;;;;;;;15.75;15.75;;;;;10.87;69.50;100954.31;5019561;28;45241;-80
2022/01/02 05:00:37;;;;;;;;;16.00;16.00;;;;;11.09;69.25;101003.75;5019295;28;46472;-80
2022/01/02 05:03:03;;;;;;;;;18.75;18.25;;;;;10.97;69.54;100944.75;5001376;28;45363;-81
2022/01/02 05:05:28;;;;;;;;;16.00;16.00;;;;;11.07;69.91;100949.22;5019475;28;45363;-80
2022/01/02 05:07:54;;;;;;;;;17.00;16.25;;;;;11.46;69.12;101009.34;5001336;28;45311;-82
2022/01/02 05:10:19;;;;;;;;;12.50;12.50;;;;;11.11;69.56;100959.81;5019168;28;46310;-82
2022/01/02 05:12:45;;;;;;;;;17.50;15.00;;;;;11.05;69.47;100932.50;5019034;28;45464;-80
2022/01/02 05:15:10;;;;;;;;;18.25;15.75;;;;;11.45;69.74;101025.16;5019530;28;45876;-80
2022/01/02 05:17:35;;;;;;;;;15.75;15.75;;;;;11.23;68.97;100973.97;5019166;28;45401;-79
2022/01/02 05:20:01;;;;;;;;;14.50;14.00;;;;;11.48;68.99;101033.09;5018898;28;45394;-79
2022/01/02 05:22:27;;;;;;;;;14.25;14.25;;;;;11.47;68.46;101045.41;5019029;28;45474;-81
2022/01/02 05:24:52;;;;;;;;;19.50;17.00;;;;;11.39;69.11;101026.00;5019250;28;45298;-82
2022/01/02 05:27:18;;;;;;;;;17.50;15.75;;;;;11.44;68.92;101042.72;5018614;28;45345;-83
2022/01/02 05:29:44;;;;;;;;;18.25;18.25;;;;;11.45;68.96;101022.50;5019074;28;46441;-82
2022/01/02 05:32:09;;;;;;;;;24.25;20.00;;;;;11.37;68.99;100985.53;5018728;28;45252;-80
2022/01/02 05:34:35;;;;;;;;;20.75;19.50;;;;;11.54;68.74;101028.78;5018473;28;45288;-79
2022/01/02 05:37:00;;;;;;;;;18.50;17.75;;;;;11.48;67.93;101022.56;5018995;28;45511;-80
2022/01/02 05:39:25;;;;;;;;;14.25;12.25;;;;;11.59;69.21;101016.47;5018699;28;45318;-80
2022/01/02 05:41:51;;;;;;;;;15.50;15.25;;;;;11.60;68.87;101027.91;5018322;28;45313;-79
2022/01/02 05:44:18;;;;;;;;;17.25;16.75;;;;;11.26;68.50;100966.09;5018530;28;45323;-79
2022/01/02 05:46:45;;;;;;;;;15.75;14.25;;;;;11.43;67.82;100989.09;5018996;28;45233;-79
2022/01/02 05:49:11;;;;;;;;;16.50;13.50;;;;;11.67;67.27;101019.19;5018278;28;45380;-81
2022/01/02 05:51:37;;;;;;;;;13.00;13.00;;;;;11.47;67.78;100981.22;5018386;28;45319;-80
2022/01/02 05:54:03;;;;;;;;;19.00;17.00;;;;;11.52;67.14;100984.75;5018457;28;45446;-80
2022/01/02 05:56:29;;;;;;;;;9.25;8.25;;;;;11.60;67.87;101006.81;5018834;28;45431;-80
2022/01/02 05:58:55;;;;;;;;;16.00;14.00;;;;;11.80;67.53;101034.25;5016932;28;46538;-81
2022/01/02 06:01:21;;;;;;;;;10.75;9.25;;;;;11.77;67.19;101026.28;5018629;28;45450;-81
2022/01/02 06:03:46;;;;;;;;;15.00;12.00;;;;;11.60;66.47;100988.34;5018288;28;45234;-81
2022/01/02 06:06:12;;;;;;;;;15.00;13.25;;;;;11.62;66.47;100986.59;5018411;28;45470;-81
2022/01/02 06:08:37;;;;;;;;;10.00;8.75;;;;;11.91;66.20;101042.25;5017999;28;46504;-81
2022/01/02 06:11:03;;;;;;;;;13.75;13.75;;;;;11.64;66.25;100974.31;5017252;28;45372;-80
2022/01/02 06:13:29;;;;;;;;;14.00;13.75;;;;;11.91;66.57;101042.25;5018275;28;45330;-81
2022/01/02 06:15:54;;;;;;;;;12.25;12.25;;;;;11.75;66.76;100987.56;5018326;28;45396;-79
2022/01/02 06:18:20;;;;;;;;;12.00;10.50;;;;;11.90;66.71;101019.38;5018344;28;46080;-81
2022/01/02 06:20:45;;;;;;;;;12.75;12.50;;;;;11.73;66.12;100976.13;5018079;28;45407;-81
2022/01/02 06:23:11;;;;;;;;;17.50;13.00;;;;;11.80;66.53;100984.09;5017866;28;45803;-86
2022/01/02 06:25:37;;;;;;;;;14.50;12.25;;;;;11.90;65.95;100991.22;5018729;28;45740;-82
2022/01/02 06:28:03;;;;;;;;;11.33;11.33;;;;;12.02;66.29;100998.34;5018365;28;46330;-81
2022/01/02 06:30:28;;;;;;;;;11.75;9.75;;;;;11.93;66.07;100988.59;5017887;28;45332;-82
2022/01/02 06:32:57;;;;;;;;;11.75;10.75;;;;;12.10;65.70;101024.75;5018110;28;45404;-81
2022/01/02 06:35:31;;;;;;;;;10.50;10.50;;;;;12.11;66.47;101027.44;5018704;28;45410;-82
2022/01/02 06:37:57;;;;;;;;;13.75;13.75;;;;;12.14;65.62;101048.56;5017893;28;46207;-80
2022/01/02 06:40:24;;;;;;;;;13.00;9.25;;;;;11.80;65.85;100996.41;5017422;28;45627;-81
2022/01/02 06:42:49;;;;;;;;;9.00;9.00;;;;;11.85;65.19;100979.75;5018479;28;45325;-83
2022/01/02 06:45:16;;;;;;;;;7.25;6.75;;;;;11.82;65.43;100987.66;5018455;28;45575;-87
2022/01/02 06:47:41;;;;;;;;;13.50;13.50;;;;;12.16;65.26;101046.81;5020614;28;45490;-84
2022/01/02 06:50:08;;;;;;;;;15.25;11.50;;;;;12.19;65.28;101057.41;5022109;28;45410;-86
2022/01/02 06:52:33;;;;;;;;;11.00;10.00;;;;;11.96;65.30;101022.06;5020380;28;45415;-86
2022/01/02 06:54:58;;;;;;;;;14.75;9.25;;;;;12.11;65.39;101037.13;5018669;28;45205;-84
2022/01/02 06:57:24;;;;;;;;;11.00;10.50;;;;;12.20;65.33;101060.94;5017708;28;45820;-84
2022/01/02 06:59:51;;;;;;;;;10.50;10.50;;;;;12.21;65.87;101050.38;5017552;28;45387;-84
2022/01/02 07:02:17;;;;;;;;;9.00;9.00;;;;;12.03;65.34;101028.25;5017396;28;45195;-84
2022/01/02 07:04:42;;;;;;;;;12.00;12.00;;;;;12.17;65.76;101068.81;5017860;28;45278;-83
2022/01/02 07:07:08;;;;;;;;;13.00;9.75;;;;;12.06;66.13;101046.75;5017279;28;46236;-83
2022/01/02 07:09:34;;;;;;;;;12.75;10.75;;;;;11.97;66.75;101050.22;5017411;28;45545;-83
2022/01/02 07:12:00;;;;;;;;;12.25;12.25;;;;;11.82;66.33;101021.97;5017781;28;45429;-84
2022/01/02 07:14:27;;;;;;;;;13.00;12.75;;;;;11.60;67.10;100993.63;5017578;28;45257;-83
2022/01/02 07:16:56;;;;;;;;;10.75;9.50;;;;;11.92;66.24;101044.94;5017493;28;46292;-83
2022/01/02 07:19:22;;;;;;;;;9.75;9.75;;;;;11.85;67.00;101031.66;4999446;28;45360;-84
2022/01/02 07:21:48;;;;;;;;;9.50;9.50;;;;;12.03;67.14;101041.47;5017149;28;45610;-84
2022/01/02 07:24:14;;;;;;;;;12.00;11.00;;;;;11.95;67.12;101039.66;5017192;28;45247;-83
2022/01/02 07:26:39;;;;;;;;;13.50;11.00;;;;;11.86;66.70;101001.75;5017206;28;46639;-83
2022/01/02 07:29:05;;;;;;;;;13.50;11.75;;;;;12.19;66.72;101048.59;5016958;28;45323;-83
2022/01/02 07:31:30;;;;;;;;;11.75;11.00;;;;;12.38;66.25;101068.09;5017408;28;45300;-83
2022/01/02 07:33:56;;;;;;;;;9.75;9.50;;;;;12.16;66.68;101015.13;5017304;28;45377;-84
2022/01/02 07:36:21;;;;;;;;;11.25;10.00;;;;;12.32;66.23;101039.00;5017147;28;45348;-84
2022/01/02 07:38:47;;;;;;;;;12.25;12.25;;;;;12.36;66.59;101054.84;4999259;28;45311;-83
2022/01/02 07:41:12;;;;;;;;;11.00;11.00;;;;;12.51;66.63;101075.19;5017205;28;45388;-84
2022/01/02 07:43:37;;;;;;;;;9.00;9.00;;;;;12.53;66.14;101063.75;5017983;28;45297;-84
2022/01/02 07:46:03;;;;;;;;;10.25;9.25;;;;;12.32;67.00;101034.59;5016607;28;45294;-84
2022/01/02 07:48:28;;;;;;;;;12.50;12.50;;;;;12.39;66.41;101062.81;5016765;28;45415;-84
2022/01/02 07:50:54;;;;;;;;;9.25;9.25;;;;;12.17;67.49;101035.38;5017460;28;45329;-84
2022/01/02 07:53:20;;;;;;;;;10.75;10.25;;;;;12.36;67.32;101053.97;5017420;28;45247;-82
2022/01/02 07:55:45;;;;;;;;;11.00;10.00;;;;;12.29;67.74;101066.28;5016838;28;46279;-84
2022/01/02 07:58:10;;;;;;;;;7.75;5.50;;;;;12.31;67.61;101082.13;5001792;28;45406;-83
2022/01/02 08:00:36;;;;;;;;;10.50;9.25;;;;;12.13;67.38;101053.84;5020243;28;45214;-83
2022/01/02 08:03:01;;;;;;;;;10.25;9.25;;;;;12.14;67.88;101063.53;5020533;28;45229;-84
2022/01/02 08:05:26;;;;;;;;;11.25;11.25;;;;;12.11;67.96;101064.41;5020277;28;46359;-83
2022/01/02 08:07:52;;;;;;;;;11.00;8.75;;;;;12.01;68.94;101048.50;5020100;28;45184;-83
2022/01/02 08:10:17;;;;;;;;;12.75;12.75;;;;;12.17;68.69;101093.47;5020035;28;45572;-83
2022/01/02 08:12:43;;;;;;;;;7.00;6.50;;;;;12.30;69.03;101133.19;5020363;28;45420;-84
2022/01/02 08:15:09;;;;;;;;;13.75;10.50;;;;;12.25;68.59;101115.53;5019946;28;46114;-84
2022/01/02 08:17:35;;;;;;;;;11.75;11.75;;;;;12.41;68.81;101131.50;5019841;28;45309;-85
2022/01/02 08:20:00;;;;;;;;;13.00;9.75;;;;;12.27;69.09;101105.88;5020086;28;45241;-84
2022/01/02 08:22:26;;;;;;;;;10.25;10.25;;;;;12.32;68.96;101115.59;5019464;28;45415;-84
2022/01/02 08:24:51;;;;;;;;;11.50;10.00;;;;;12.48;68.89;101122.75;5020092;28;46439;-83
2022/01/02 08:27:17;;;;;;;;;13.75;12.00;;;;;12.36;69.07;101107.69;5020101;28;45489;-84
2022/01/02 08:29:43;;;;;;;;;11.25;9.75;;;;;12.47;69.37;101113.94;5002034;28;45435;-84
2022/01/02 08:32:09;;;;;;;;;14.50;12.50;;;;;12.20;68.78;101063.59;5020303;28;45222;-83
2022/01/02 08:34:35;;;;;;;;;9.75;9.75;;;;;11.75;68.95;100988.47;5019557;28;46372;-82
2022/01/02 08:37:00;;;;;;;;;10.50;10.50;;;;;12.57;68.85;101112.22;5001548;28;45397;-83
2022/01/02 08:39:26;;;;;;;;;9.50;9.50;;;;;12.58;69.14;101127.22;5020379;28;45155;-83
2022/01/02 08:41:52;;;;;;;;;12.75;10.75;;;;;12.46;69.19;101090.13;5020380;28;45231;-83
2022/01/02 08:44:18;;;;;;;;;9.00;7.75;;;;;12.51;68.82;101097.22;5019512;28;45356;-83
2022/01/02 08:46:44;;;;;;;;;12.50;11.25;;;;;12.41;69.10;101084.81;5015985;28;45444;-82
2022/01/02 08:49:09;;;;;;;;;12.00;11.00;;;;;12.51;69.64;101094.56;5018653;28;45513;-80
2022/01/02 08:51:35;;;;;;;;;13.00;13.00;;;;;12.83;69.63;101141.41;5019773;28;45413;-83
2022/01/02 08:54:01;;;;;;;;;13.75;12.00;;;;;12.87;69.53;101145.84;4986312;28;46492;-84
2022/01/02 08:56:26;;;;;;;;;18.50;13.00;;;;;12.68;69.57;101107.88;5000322;28;45422;-84
2022/01/02 08:58:52;;;;;;;;;11.75;11.75;;;;;12.73;69.54;101123.75;5004040;28;45461;-83
2022/01/02 09:01:17;;;;;;;;;10.75;10.50;;;;;12.65;69.72;101118.41;4991000;28;45563;-85
2022/01/02 09:03:43;;;;;;;;;12.00;10.25;;;;;12.81;69.34;101137.88;5019167;28;45375;-83
2022/01/02 09:06:08;;;;;;;;;9.50;9.50;;;;;12.93;69.64;101161.72;4998976;28;45854;-81
2022/01/02 09:08:33;;;;;;;;;9.50;8.00;;;;;12.97;69.69;101157.34;5007568;28;45376;-90
2022/01/02 09:10:59;;;;;;;;;10.50;10.50;;;;;12.96;69.71;101158.22;4992771;28;45446;-87
2022/01/02 09:13:26;;;;;;;;;17.25;14.00;;;;;12.91;69.64;101159.97;5020295;28;45388;-88
2022/01/02 09:15:55;;;;;;;;;11.25;11.00;;;;;13.00;69.78;101166.16;5004326;28;45854;-86
2022/01/02 09:18:21;;;;;;;;;9.50;9.50;;;;;13.04;69.89;101177.66;4996891;28;45431;-86
2022/01/02 09:20:46;;;;;;;;;10.50;10.50;;;;;12.86;69.28;101130.00;4983244;28;45496;-87
2022/01/02 09:23:12;;;;;;;;;14.50;11.75;;;;;13.12;69.38;101179.47;5005022;28;45636;-86
2022/01/02 09:25:38;;;;;;;;;10.25;10.25;;;;;12.66;69.62;101092.88;5004331;28;45447;-85
2022/01/02 09:28:03;;;;;;;;;13.00;10.50;;;;;13.32;69.32;101183.97;4982267;28;45296;-85
2022/01/02 09:30:28;;;;;;;;;10.00;9.25;;;;;12.62;68.57;101017.09;4997846;28;45507;-85
2022/01/02 09:32:55;;;;;;;;;11.25;11.00;;;;;14.07;66.03;101073.72;5010494;28;45458;-86
2022/01/02 09:35:21;;;;;;;;;12.25;9.25;;;;;16.03;61.42;101139.13;4992248;28;45263;-89
2022/01/02 09:37:47;;;;;;;;;12.50;12.50;;;;;16.81;59.21;101185.34;4987582;28;45542;-85
2022/01/02 09:40:12;;;;;;;;;8.25;8.00;;;;;17.27;57.74;101208.78;4988218;28;45240;-86
2022/01/02 09:42:39;;;;;;;;;10.00;7.00;;;;;17.46;57.17;101166.78;5014286;28;45378;-86
2022/01/02 09:45:06;;;;;;;;;12.00;9.25;;;;;17.44;55.62;101091.38;4996648;28;45470;-89
2022/01/02 09:47:32;;;;;;;;;10.75;8.75;;;;;18.68;53.70;101180.84;4988878;28;45317;-90
2022/01/02 09:50:13;;;;;;;;;11.75;11.00;;;;;18.66;51.97;101014.53;5155104;23;46140;-89
2022/01/02 09:53:17;;;;;;;;;9.67;9.67;;;;;20.91;48.47;101191.69;5003362;28;46897;-90
2022/01/02 09:56:21;;;;;;;;;8.33;8.33;;;;;21.18;45.71;101015.88;5007130;28;45315;-90
2022/01/02 09:58:47;;;;;;;;;9.67;9.67;;;;;22.10;43.64;101096.88;5013575;28;45352;-84
2022/01/02 10:01:24;;;;;;;;;7.67;7.67;;;;;22.99;42.28;101085.63;4999916;28;45369;-89
2022/01/02 10:03:58;;;;;;;;;11.33;8.00;;;;;23.08;42.95;101182.03;5004442;28;47243;-88
2022/01/02 10:06:48;;;;;;;;;10.00;9.33;;;;;21.53;45.02;101110.41;5002738;28;46772;-88
2022/01/02 10:09:15;;;;;;;;;12.00;9.00;;;;;23.19;42.01;101123.34;5000733;28;45390;-85
2022/01/02 10:11:41;;;;;;;;;11.00;11.00;;;;;23.32;40.92;101181.06;4997569;28;45333;-85
2022/01/02 10:14:09;;;;;;;;;12.00;8.00;;;;;21.54;43.34;101088.88;4999358;28;47653;-88
2022/01/02 10:16:41;;;;;;;;;9.33;9.33;;;;;20.18;46.97;101127.59;5003155;28;45448;-87
2022/01/02 10:19:29;;;;;;;;;8.00;6.00;;;;;19.61;49.21;101196.75;5004681;28;45437;-87
2022/01/02 10:22:02;;;;;;;;;9.00;8.67;;;;;19.04;50.01;101160.53;4999178;28;46267;-84
2022/01/02 10:24:29;;;;;;;;;8.33;7.67;;;;;19.05;50.53;101188.13;5004049;28;47260;-87
2022/01/02 10:27:19;;;;;;;;;6.67;6.67;;;;;18.51;51.37;101193.56;4997037;28;45395;-81
2022/01/02 10:29:57;;;;;;;;;6.00;6.00;;;;;17.45;53.09;101146.41;4995364;28;45287;-79
2022/01/02 10:32:31;;;;;;;;;7.67;7.67;;;;;16.60;54.82;101105.75;4995500;28;45411;-81
2022/01/02 10:35:08;;;;;;;;;10.00;8.00;;;;;16.74;56.21;101193.41;4979390;28;47762;-79
2022/01/02 10:37:34;;;;;;;;;11.00;7.00;;;;;16.69;56.63;101173.97;4996171;28;45388;-81
2022/01/02 10:39:59;;;;;;;;;5.00;5.00;;;;;16.04;57.49;101127.63;4996032;28;45488;-81
2022/01/02 10:42:25;;;;;;;;;9.33;9.33;;;;;16.03;58.53;101185.19;4990749;28;45447;-80
2022/01/02 10:44:50;;;;;;;;;9.33;6.33;;;;;15.52;58.93;101138.59;4975084;28;46455;-79
2022/01/02 10:47:21;;;;;;;;;5.00;5.00;;;;;15.67;60.07;101199.63;4988867;28;45446;-82
2022/01/02 10:50:06;;;;;;;;;3.00;2.00;;;;;15.51;60.04;101190.81;4998015;28;45747;-83
2022/01/02 10:53:20;;;;;;;;;7.33;5.00;;;;;14.71;61.16;101085.97;4998136;28;45530;-88
2022/01/02 10:58:35;;;;;;;;;4.75;4.75;;;;;15.17;61.42;101191.84;4944223;28;45428;-90
2022/01/02 11:01:04;;;;;;;;;6.50;5.25;;;;;14.54;62.32;101100.16;4941294;28;45426;-89
2022/01/02 11:03:31;;;;;;;;;7.00;7.00;;;;;14.72;62.11;101131.03;4930718;28;45379;-85
2022/01/02 11:06:04;;;;;;;;;7.25;5.25;;;;;14.34;62.45;101083.41;4958778;28;45403;-88
2022/01/02 11:08:33;;;;;;;;;6.75;5.00;;;;;14.63;62.98;101146.97;4957933;28;45431;-85
2022/01/02 11:10:59;;;;;;;;;5.00;4.00;;;;;14.43;63.00;101109.88;4957504;28;45383;-86
2022/01/02 11:13:25;;;;;;;;;3.00;3.00;;;;;14.82;63.00;101179.63;4956869;28;45320;-88
2022/01/02 11:15:53;;;;;;;;;6.50;4.25;;;;;15.01;63.10;101205.19;4941918;28;47913;-85
2022/01/02 11:18:19;;;;;;;;;5.00;4.00;;;;;14.45;63.33;101116.09;4940985;28;45665;-88
2022/01/02 11:20:44;;;;;;;;;3.00;3.00;;;;;14.69;62.93;101161.97;4956753;28;45351;-86
2022/01/02 11:23:25;;;;;;;;;5.00;4.00;;;;;14.76;63.83;101169.91;4957369;28;45480;-87
2022/01/02 11:26:17;;;;;;;;;6.50;4.75;;;;;14.83;64.13;101194.66;4956352;28;45454;-86